createdAt,value
2019-05-20T00:00:07.234Z,97.56
2019-05-20T00:01:07.227Z,97.66
2019-05-20T00:02:21.667Z,97.87
2019-05-20T00:03:08.218Z,98.07
2019-05-20T00:04:07.189Z,97.87
2019-05-20T00:05:07.189Z,97.97
2019-05-20T00:06:07.237Z,98.07
2019-05-20T00:07:07.166Z,98.18
2019-05-20T00:08:07.152Z,98.38
2019-05-20T00:09:07.138Z,98.38
2019-05-20T00:10:07.127Z,98.38
2019-05-20T00:11:07.477Z,98.43
2019-05-20T00:12:07.104Z,98.38
2019-05-20T00:13:07.092Z,98.48
2019-05-20T00:14:07.085Z,98.54
2019-05-20T00:15:07.076Z,98.58
2019-05-20T00:16:07.064Z,98.27
2019-05-20T00:17:07.053Z,98.43
2019-05-20T00:18:07.038Z,98.02
2019-05-20T00:19:07.030Z,98.33
2019-05-20T00:20:07.016Z,98.43
2019-05-20T00:21:07.002Z,98.02
2019-05-20T00:22:06.998Z,98.38
2019-05-20T00:23:06.984Z,98.58
2019-05-20T00:24:06.973Z,98.99
2019-05-20T00:25:06.966Z,98.58
2019-05-20T00:26:06.951Z,98.99
2019-05-20T00:27:06.943Z,98.89
2019-05-20T00:28:06.928Z,98.94
2019-05-20T00:29:06.916Z,99.09
2019-05-20T00:30:06.906Z,99.09
2019-05-20T00:31:06.909Z,98.89
2019-05-20T00:32:06.883Z,98.99
2019-05-20T00:33:06.947Z,98.79
2019-05-20T00:34:06.866Z,98.79
2019-05-20T00:35:06.863Z,99.19
2019-05-20T00:36:06.851Z,98.89
2019-05-20T00:37:06.832Z,98.68
2019-05-20T00:38:06.819Z,98.79
2019-05-20T00:39:06.807Z,98.79
2019-05-20T00:40:06.800Z,98.93
2019-05-20T00:41:06.785Z,98.89
2019-05-20T00:42:06.780Z,99.40
2019-05-20T00:43:06.774Z,99.19
2019-05-20T00:44:06.752Z,99.29
2019-05-20T00:45:06.745Z,99.29
2019-05-20T00:46:06.737Z,99.29
2019-05-20T00:47:06.720Z,98.89
2019-05-20T00:48:06.709Z,98.93
2019-05-20T00:49:06.706Z,99.09
2019-05-20T00:50:06.694Z,99.14
2019-05-20T00:51:06.674Z,99.14
2019-05-20T00:52:06.665Z,99.70
2019-05-20T00:53:06.675Z,99.70
2019-05-20T00:54:06.642Z,99.70
2019-05-20T00:55:06.630Z,99.50
2019-05-20T00:56:06.622Z,99.70
2019-05-20T00:57:06.611Z,99.70
2019-05-20T00:58:06.599Z,99.50
2019-05-20T00:59:06.589Z,99.60
2019-05-20T01:00:06.642Z,99.40
2019-05-20T01:01:06.564Z,99.40
2019-05-20T01:02:06.554Z,99.44
2019-05-20T01:03:06.550Z,99.29
2019-05-20T01:04:06.537Z,99.44
2019-05-20T01:05:06.523Z,99.29
2019-05-20T01:06:06.511Z,99.29
2019-05-20T01:07:06.507Z,99.44
2019-05-20T01:08:06.489Z,99.14
2019-05-20T01:09:06.480Z,99.24
2019-05-20T01:10:06.469Z,99.44
2019-05-20T01:11:06.458Z,99.24
2019-05-20T01:12:06.444Z,99.24
2019-05-20T01:13:06.439Z,99.44
2019-05-20T01:14:06.431Z,99.34
2019-05-20T01:15:06.416Z,99.44
2019-05-20T01:16:06.409Z,99.44
2019-05-20T01:17:06.399Z,99.44
2019-05-20T01:18:06.381Z,99.24
2019-05-20T01:19:06.374Z,99.24
2019-05-20T01:20:06.359Z,99.24
2019-05-20T01:21:06.356Z,99.34
2019-05-20T01:22:06.337Z,99.24
2019-05-20T01:23:06.331Z,99.44
2019-05-20T01:24:06.318Z,99.44
2019-05-20T01:25:06.307Z,99.24
2019-05-20T01:26:06.293Z,99.44
2019-05-20T01:27:06.282Z,99.24
2019-05-20T01:28:06.267Z,99.44
2019-05-20T01:29:06.259Z,99.54
2019-05-20T01:30:06.260Z,99.04
2019-05-20T01:31:06.245Z,99.34
2019-05-20T01:32:06.228Z,99.24
2019-05-20T01:33:13.965Z,99.44
2019-05-20T01:34:07.226Z,99.34
2019-05-20T01:35:06.195Z,99.44
2019-05-20T01:36:06.186Z,99.54
2019-05-20T01:37:06.179Z,99.34
2019-05-20T01:38:06.160Z,99.24
2019-05-20T01:39:06.149Z,99.39
2019-05-20T01:40:06.144Z,99.49
2019-05-20T01:41:06.126Z,99.14
2019-05-20T01:42:06.116Z,99.54
2019-05-20T01:43:06.108Z,99.24
2019-05-20T01:44:06.094Z,99.44
2019-05-20T01:45:06.087Z,99.24
2019-05-20T01:46:06.071Z,99.14
2019-05-20T01:47:06.063Z,99.24
2019-05-20T01:48:06.049Z,99.34
2019-05-20T01:49:06.045Z,99.24
2019-05-20T01:50:06.033Z,99.24
2019-05-20T01:51:06.018Z,99.44
2019-05-20T01:52:06.007Z,99.44
2019-05-20T01:53:05.996Z,99.44
2019-05-20T01:54:05.986Z,99.44
2019-05-20T01:55:05.977Z,99.44
2019-05-20T01:56:05.966Z,99.34
2019-05-20T01:57:05.949Z,99.34
2019-05-20T01:58:05.939Z,99.34
2019-05-20T01:59:05.935Z,99.24
2019-05-20T02:00:05.921Z,99.34
2019-05-20T02:01:05.908Z,99.44
2019-05-20T02:02:05.899Z,99.65
2019-05-20T02:03:05.888Z,99.75
2019-05-20T02:04:05.877Z,99.24
2019-05-20T02:05:05.868Z,99.14
2019-05-20T02:06:05.861Z,99.04
2019-05-20T02:07:05.892Z,99.04
2019-05-20T02:08:05.837Z,99.14
2019-05-20T02:09:05.827Z,99.04
2019-05-20T02:10:05.831Z,99.24
2019-05-20T02:11:05.801Z,99.34
2019-05-20T02:12:05.788Z,99.34
2019-05-20T02:13:05.786Z,99.34
2019-05-20T02:14:05.763Z,99.24
2019-05-20T02:15:05.756Z,99.34
2019-05-20T02:16:05.747Z,98.63
2019-05-20T02:17:05.736Z,98.83
2019-05-20T02:18:05.723Z,98.98
2019-05-20T02:19:05.714Z,98.98
2019-05-20T02:20:05.717Z,99.18
2019-05-20T02:21:05.697Z,99.08
2019-05-20T02:22:05.683Z,98.47
2019-05-20T02:23:05.672Z,98.68
2019-05-20T02:24:05.660Z,98.47
2019-05-20T02:25:05.647Z,98.16
2019-05-20T02:26:05.654Z,98.16
2019-05-20T02:27:05.631Z,98.16
2019-05-20T02:28:05.612Z,98.57
2019-05-20T02:29:05.603Z,98.68
2019-05-20T02:30:05.596Z,98.36
2019-05-20T02:31:05.593Z,98.16
2019-05-20T02:32:05.570Z,98.57
2019-05-20T02:33:05.563Z,98.57
2019-05-20T02:34:05.553Z,98.47
2019-05-20T02:35:05.542Z,97.96
2019-05-20T02:36:05.527Z,97.55
2019-05-20T02:37:05.521Z,97.91
2019-05-20T02:38:05.503Z,97.81
2019-05-20T02:39:05.497Z,97.96
2019-05-20T02:40:05.485Z,97.91
2019-05-20T02:41:05.483Z,97.96
2019-05-20T02:42:05.467Z,97.75
2019-05-20T02:43:05.452Z,97.34
2019-05-20T02:44:05.526Z,97.20
2019-05-20T02:45:05.433Z,97.65
2019-05-20T02:46:05.425Z,97.00
2019-05-20T02:47:05.412Z,96.69
2019-05-20T02:48:05.399Z,96.38
2019-05-20T02:49:05.394Z,96.59
2019-05-20T02:50:05.376Z,96.48
2019-05-20T02:51:05.367Z,96.08
2019-05-20T02:52:05.354Z,95.57
2019-05-20T02:53:05.346Z,95.06
2019-05-20T02:54:05.344Z,94.95
2019-05-20T02:55:05.325Z,94.85
2019-05-20T02:56:05.318Z,95.12
2019-05-20T02:57:05.305Z,95.06
2019-05-20T02:58:05.293Z,94.85
2019-05-20T02:59:05.278Z,95.16
2019-05-20T03:00:05.270Z,94.95
2019-05-20T03:01:05.261Z,94.65
2019-05-20T03:02:05.258Z,94.95
2019-05-20T03:03:05.242Z,95.26
2019-05-20T03:04:12.041Z,94.85
2019-05-20T03:05:06.212Z,95.01
2019-05-20T03:06:05.207Z,95.47
2019-05-20T03:07:05.190Z,94.85
2019-05-20T03:08:05.187Z,95.01
2019-05-20T03:09:05.169Z,95.21
2019-05-20T03:10:05.159Z,95.12
2019-05-20T03:11:05.149Z,94.75
2019-05-20T03:12:05.138Z,94.55
2019-05-20T03:13:05.129Z,94.75
2019-05-20T03:14:05.149Z,94.71
2019-05-20T03:15:05.101Z,94.60
2019-05-20T03:16:05.103Z,94.71
2019-05-20T03:17:05.093Z,93.93
2019-05-20T03:18:05.071Z,93.63
2019-05-20T03:19:05.064Z,93.52
2019-05-20T03:20:05.049Z,93.22
2019-05-20T03:21:05.042Z,93.22
2019-05-20T03:22:05.035Z,93.38
2019-05-20T03:23:05.016Z,93.43
2019-05-20T03:24:05.006Z,93.22
2019-05-20T03:25:04.998Z,93.18
2019-05-20T03:26:04.986Z,93.07
2019-05-20T03:27:04.974Z,93.18
2019-05-20T03:28:04.962Z,93.12
2019-05-20T03:29:04.954Z,93.43
2019-05-20T03:30:04.950Z,93.02
2019-05-20T03:31:04.937Z,93.02
2019-05-20T03:32:04.936Z,92.30
2019-05-20T03:33:04.924Z,92.81
2019-05-20T03:34:04.899Z,93.22
2019-05-20T03:35:04.892Z,91.89
2019-05-20T03:36:04.885Z,92.41
2019-05-20T03:37:04.866Z,93.22
2019-05-20T03:38:04.856Z,93.22
2019-05-20T03:39:04.852Z,93.02
2019-05-20T03:40:04.831Z,92.81
2019-05-20T03:41:04.874Z,92.10
2019-05-20T03:42:04.813Z,92.00
2019-05-20T03:43:04.800Z,91.89
2019-05-20T03:44:04.786Z,92.10
2019-05-20T03:45:04.777Z,91.79
2019-05-20T03:46:04.766Z,92.00
2019-05-20T03:47:04.759Z,91.89
2019-05-20T03:48:04.749Z,92.10
2019-05-20T03:49:04.736Z,91.89
2019-05-20T03:50:04.739Z,92.10
2019-05-20T03:51:04.713Z,93.02
2019-05-20T03:52:04.707Z,92.71
2019-05-20T03:53:04.688Z,92.30
2019-05-20T03:54:04.697Z,91.69
2019-05-20T03:55:04.672Z,91.79
2019-05-20T03:56:04.664Z,92.41
2019-05-20T03:57:04.646Z,91.28
2019-05-20T03:58:04.638Z,92.10
2019-05-20T03:59:04.624Z,92.36
2019-05-20T04:00:04.628Z,92.00
2019-05-20T04:01:04.609Z,92.05
2019-05-20T04:02:04.603Z,92.30
2019-05-20T04:03:04.582Z,92.20
2019-05-20T04:04:04.574Z,92.81
2019-05-20T04:05:04.577Z,92.71
2019-05-20T04:06:04.548Z,93.02
2019-05-20T04:07:04.606Z,92.30
2019-05-20T04:08:04.572Z,92.00
2019-05-20T04:09:04.516Z,92.61
2019-05-20T04:10:04.525Z,92.81
2019-05-20T04:11:04.506Z,92.00
2019-05-20T04:12:04.486Z,91.89
2019-05-20T04:13:04.480Z,92.00
2019-05-20T04:14:04.465Z,91.96
2019-05-20T04:15:04.448Z,92.26
2019-05-20T04:16:04.440Z,92.97
2019-05-20T04:17:04.429Z,92.87
2019-05-20T04:18:04.422Z,92.57
2019-05-20T04:19:04.409Z,92.10
2019-05-20T04:20:04.404Z,93.02
2019-05-20T04:21:04.390Z,92.26
2019-05-20T04:22:04.385Z,93.28
2019-05-20T04:23:04.366Z,93.12
2019-05-20T04:24:04.356Z,93.93
2019-05-20T04:25:04.349Z,93.73
2019-05-20T04:26:04.339Z,94.34
2019-05-20T04:27:04.328Z,94.04
2019-05-20T04:28:04.335Z,93.02
2019-05-20T04:29:04.297Z,93.32
2019-05-20T04:30:04.290Z,92.00
2019-05-20T04:31:04.279Z,92.05
2019-05-20T04:32:04.272Z,92.71
2019-05-20T04:33:04.270Z,92.97
2019-05-20T04:34:04.248Z,91.89
2019-05-20T04:35:20.401Z,91.44
2019-05-20T04:36:05.224Z,91.75
2019-05-20T04:37:04.213Z,91.14
2019-05-20T04:38:04.202Z,91.75
2019-05-20T04:39:04.190Z,91.03
2019-05-20T04:40:04.180Z,91.24
2019-05-20T04:41:04.172Z,91.03
2019-05-20T04:42:06.638Z,91.55
2019-05-20T04:43:04.148Z,91.24
2019-05-20T04:44:04.140Z,91.55
2019-05-20T04:45:04.126Z,90.94
2019-05-20T04:46:04.112Z,90.42
2019-05-20T04:47:04.103Z,91.03
2019-05-20T04:48:04.095Z,90.94
2019-05-20T04:49:04.081Z,90.32
2019-05-20T04:50:04.078Z,90.73
2019-05-20T04:51:04.057Z,90.08
2019-05-20T04:52:04.056Z,89.16
2019-05-20T04:53:04.039Z,90.38
2019-05-20T04:54:04.027Z,90.38
2019-05-20T04:55:04.020Z,90.42
2019-05-20T04:56:04.006Z,89.51
2019-05-20T04:57:03.997Z,90.08
2019-05-20T04:58:04.004Z,89.40
2019-05-20T04:59:03.971Z,88.85
2019-05-20T05:00:03.964Z,88.96
2019-05-20T05:01:03.997Z,89.32
2019-05-20T05:02:03.936Z,88.92
2019-05-20T05:03:03.928Z,87.59
2019-05-20T05:04:03.918Z,89.42
2019-05-20T05:05:03.909Z,89.42
2019-05-20T05:06:03.901Z,89.63
2019-05-20T05:07:03.881Z,89.94
2019-05-20T05:08:03.871Z,88.81
2019-05-20T05:09:04.147Z,88.36
2019-05-20T05:10:03.852Z,87.08
2019-05-20T05:11:03.844Z,88.36
2019-05-20T05:12:03.830Z,87.35
2019-05-20T05:13:03.816Z,89.28
2019-05-20T05:14:03.809Z,88.06
2019-05-20T05:15:07.732Z,87.55
2019-05-20T05:16:03.782Z,88.57
2019-05-20T05:17:03.775Z,87.85
2019-05-20T05:18:03.760Z,87.96
2019-05-20T05:19:03.754Z,87.14
2019-05-20T05:20:03.739Z,87.35
2019-05-20T05:21:03.752Z,88.26
2019-05-20T05:22:03.718Z,88.26
2019-05-20T05:23:03.710Z,87.04
2019-05-20T05:24:03.699Z,87.04
2019-05-20T05:25:03.686Z,88.02
2019-05-20T05:26:03.677Z,88.02
2019-05-20T05:27:03.671Z,86.90
2019-05-20T05:28:03.654Z,86.59
2019-05-20T05:29:03.647Z,86.19
2019-05-20T05:30:03.636Z,86.49
2019-05-20T05:31:03.622Z,84.76
2019-05-20T05:32:03.605Z,84.76
2019-05-20T05:33:03.614Z,87.10
2019-05-20T05:34:03.594Z,87.41
2019-05-20T05:35:03.575Z,86.49
2019-05-20T05:36:03.562Z,85.06
2019-05-20T05:37:03.553Z,84.76
2019-05-20T05:38:03.617Z,85.88
2019-05-20T05:39:03.534Z,86.04
2019-05-20T05:40:07.737Z,87.16
2019-05-20T05:41:03.579Z,86.04
2019-05-20T05:42:03.625Z,86.96
2019-05-20T05:43:03.491Z,85.94
2019-05-20T05:44:03.484Z,85.06
2019-05-20T05:45:03.471Z,85.23
2019-05-20T05:46:03.459Z,84.72
2019-05-20T05:47:03.455Z,86.25
2019-05-20T05:48:03.445Z,86.76
2019-05-20T05:49:03.429Z,87.06
2019-05-20T05:50:03.415Z,86.92
2019-05-20T05:51:03.403Z,87.32
2019-05-20T05:52:03.397Z,86.92
2019-05-20T05:53:03.380Z,87.49
2019-05-20T05:54:03.380Z,85.86
2019-05-20T05:55:03.364Z,83.22
2019-05-20T05:56:03.350Z,83.06
2019-05-20T05:57:03.337Z,82.65
2019-05-20T05:58:03.324Z,83.22
2019-05-20T05:59:03.316Z,82.73
2019-05-20T06:00:03.313Z,81.62
2019-05-20T06:01:03.302Z,82.12
2019-05-20T06:02:03.285Z,82.03
2019-05-20T06:03:03.310Z,82.25
2019-05-20T06:04:03.258Z,80.73
2019-05-20T06:05:03.250Z,80.53
2019-05-20T06:06:12.330Z,79.72
2019-05-20T06:07:04.227Z,79.18
2019-05-20T06:08:03.226Z,80.94
2019-05-20T06:09:03.214Z,81.62
2019-05-20T06:10:03.193Z,82.39
2019-05-20T06:11:03.181Z,81.58
2019-05-20T06:12:03.173Z,82.86
2019-05-20T06:13:03.197Z,82.96
2019-05-20T06:14:03.151Z,81.40
2019-05-20T06:15:03.139Z,82.31
2019-05-20T06:16:03.131Z,82.07
2019-05-20T06:17:03.119Z,79.44
2019-05-20T06:18:03.105Z,79.31
2019-05-20T06:19:03.094Z,81.30
2019-05-20T06:20:03.090Z,80.22
2019-05-20T06:21:03.083Z,79.04
2019-05-20T06:22:03.083Z,81.11
2019-05-20T06:23:03.054Z,80.30
2019-05-20T06:24:03.042Z,80.50
2019-05-20T06:25:03.422Z,81.62
2019-05-20T06:26:03.019Z,82.23
2019-05-20T06:27:03.006Z,83.10
2019-05-20T06:28:02.994Z,81.41
2019-05-20T06:29:03.163Z,81.88
2019-05-20T06:30:02.978Z,83.20
2019-05-20T06:31:02.966Z,82.39
2019-05-20T06:32:02.962Z,81.99
2019-05-20T06:33:02.948Z,81.38
2019-05-20T06:34:02.933Z,82.39
2019-05-20T06:35:02.943Z,82.35
2019-05-20T06:36:02.969Z,80.73
2019-05-20T06:37:02.918Z,80.43
2019-05-20T06:38:02.890Z,82.42
2019-05-20T06:39:02.880Z,80.29
2019-05-20T06:40:02.863Z,81.20
2019-05-20T06:41:02.860Z,80.39
2019-05-20T06:42:02.850Z,80.59
2019-05-20T06:43:02.839Z,81.46
2019-05-20T06:44:02.823Z,80.19
2019-05-20T06:45:02.814Z,80.55
2019-05-20T06:46:02.807Z,81.83
2019-05-20T06:47:02.794Z,80.88
2019-05-20T06:48:02.782Z,79.33
2019-05-20T06:49:02.764Z,78.31
2019-05-20T06:50:02.759Z,78.88
2019-05-20T06:51:02.750Z,78.68
2019-05-20T06:52:02.730Z,76.52
2019-05-20T06:53:02.743Z,77.60
2019-05-20T06:54:02.711Z,76.22
2019-05-20T06:55:02.705Z,76.18
2019-05-20T06:56:02.693Z,75.88
2019-05-20T06:57:02.693Z,76.25
2019-05-20T06:58:02.666Z,73.32
2019-05-20T06:59:02.669Z,73.69
2019-05-20T07:00:02.656Z,74.60
2019-05-20T07:01:02.634Z,74.73
2019-05-20T07:02:02.648Z,74.33
2019-05-20T07:03:02.616Z,73.32
2019-05-20T07:04:02.610Z,73.49
2019-05-20T07:05:02.592Z,74.60
2019-05-20T07:06:02.580Z,74.40
2019-05-20T07:07:12.465Z,74.46
2019-05-20T07:08:03.560Z,74.46
2019-05-20T07:09:02.549Z,74.02
2019-05-20T07:10:02.549Z,73.02
2019-05-20T07:11:02.527Z,73.42
2019-05-20T07:12:02.552Z,73.58
2019-05-20T07:13:02.504Z,71.77
2019-05-20T07:14:02.502Z,72.78
2019-05-20T07:15:02.952Z,71.67
2019-05-20T07:16:02.480Z,71.64
2019-05-20T07:17:02.469Z,71.23
2019-05-20T07:18:02.474Z,68.61
2019-05-20T07:19:02.443Z,71.26
2019-05-20T07:20:02.431Z,71.13
2019-05-20T07:21:02.420Z,69.92
2019-05-20T07:22:02.415Z,70.62
2019-05-20T07:23:02.395Z,71.33
2019-05-20T07:24:02.382Z,68.54
2019-05-20T07:25:02.545Z,70.22
2019-05-20T07:26:02.371Z,71.23
2019-05-20T07:27:02.362Z,73.05
2019-05-20T07:28:02.360Z,71.77
2019-05-20T07:29:02.332Z,71.13
2019-05-20T07:30:02.321Z,71.33
2019-05-20T07:31:02.304Z,69.82
2019-05-20T07:32:02.305Z,69.65
2019-05-20T07:33:02.289Z,67.37
2019-05-20T07:34:02.274Z,66.80
2019-05-20T07:35:02.271Z,65.87
2019-05-20T07:36:02.253Z,65.50
2019-05-20T07:37:03.960Z,62.56
2019-05-20T07:38:02.243Z,63.67
2019-05-20T07:39:02.232Z,62.85
2019-05-20T07:40:02.277Z,66.00
2019-05-20T07:41:02.196Z,65.19
2019-05-20T07:42:02.194Z,64.53
2019-05-20T07:43:02.227Z,64.10
2019-05-20T07:44:02.323Z,63.76
2019-05-20T07:45:02.420Z,64.47
2019-05-20T07:46:02.146Z,63.39
2019-05-20T07:47:02.150Z,62.92
2019-05-20T07:48:02.135Z,62.78
2019-05-20T07:49:02.464Z,64.59
2019-05-20T07:50:02.103Z,63.22
2019-05-20T07:51:02.097Z,63.43
2019-05-20T07:52:02.088Z,62.60
2019-05-20T07:53:02.079Z,60.89
2019-05-20T07:54:02.314Z,59.46
2019-05-20T07:55:02.078Z,61.11
2019-05-20T07:56:02.270Z,58.82
2019-05-20T07:57:02.030Z,61.28
2019-05-20T07:58:02.031Z,57.50
2019-05-20T07:59:02.003Z,55.36
2019-05-20T08:00:02.012Z,54.66
2019-05-20T08:01:01.986Z,52.67
2019-05-20T08:02:01.983Z,49.04
2019-05-20T08:03:01.963Z,49.01
2019-05-20T08:04:01.981Z,50.08
2019-05-20T08:05:02.160Z,49.68
2019-05-20T08:06:01.933Z,49.36
2019-05-20T08:07:26.268Z,52.34
2019-05-20T08:08:02.913Z,51.42
2019-05-20T08:09:01.934Z,53.99
2019-05-20T08:10:02.145Z,54.49
2019-05-20T08:11:01.880Z,53.89
2019-05-20T08:12:01.874Z,53.99
2019-05-20T08:13:01.862Z,56.29
2019-05-20T08:14:01.845Z,54.55
2019-05-20T08:15:01.861Z,54.82
2019-05-20T08:16:01.846Z,54.79
2019-05-20T08:17:01.826Z,53.97
2019-05-20T08:18:01.820Z,52.09
2019-05-20T08:19:01.824Z,52.49
2019-05-20T08:20:01.803Z,50.95
2019-05-20T08:21:01.774Z,48.79
2019-05-20T08:22:01.765Z,47.89
2019-05-20T08:23:02.253Z,49.03
2019-05-20T08:24:02.172Z,50.35
2019-05-20T08:25:01.798Z,50.27
2019-05-20T08:26:01.720Z,49.25
2019-05-20T08:27:01.853Z,51.47
2019-05-20T08:28:01.700Z,52.92
2019-05-20T08:29:01.695Z,52.92
2019-05-20T08:30:01.855Z,55.37
2019-05-20T08:31:01.688Z,56.60
2019-05-20T08:32:01.663Z,56.37
2019-05-20T08:33:01.647Z,53.69
2019-05-20T08:34:01.638Z,53.52
2019-05-20T08:35:01.918Z,54.36
2019-05-20T08:36:01.671Z,50.65
2019-05-20T08:37:01.611Z,48.07
2019-05-20T08:38:01.599Z,47.60
2019-05-20T08:39:01.604Z,50.10
2019-05-20T08:40:01.631Z,51.79
2019-05-20T08:41:01.572Z,51.34
2019-05-20T08:42:01.723Z,52.69
2019-05-20T08:43:01.552Z,52.17
2019-05-20T08:44:01.535Z,52.84
2019-05-20T08:45:01.554Z,54.69
2019-05-20T08:46:01.517Z,54.17
2019-05-20T08:47:01.660Z,53.52
2019-05-20T08:48:01.501Z,52.57
2019-05-20T08:49:01.488Z,56.77
2019-05-20T08:50:02.193Z,56.52
2019-05-20T08:51:01.461Z,56.56
2019-05-20T08:52:01.461Z,56.85
2019-05-20T08:53:01.454Z,55.62
2019-05-20T08:54:01.431Z,53.57
2019-05-20T08:55:01.740Z,54.12
2019-05-20T08:56:01.442Z,53.64
2019-05-20T08:57:01.434Z,54.93
2019-05-20T08:58:01.406Z,54.95
2019-05-20T08:59:01.389Z,57.51
2019-05-20T09:00:01.373Z,59.69
2019-05-20T09:01:01.363Z,60.19
2019-05-20T09:02:01.351Z,59.19
2019-05-20T09:03:01.338Z,58.99
2019-05-20T09:04:01.338Z,57.31
2019-05-20T09:05:01.327Z,58.14
2019-05-20T09:06:01.367Z,58.94
2019-05-20T09:07:01.292Z,58.97
2019-05-20T09:08:03.482Z,59.47
2019-05-20T09:09:01.284Z,59.08
2019-05-20T09:10:01.282Z,58.97
2019-05-20T09:11:01.258Z,59.65
2019-05-20T09:12:01.251Z,60.42
2019-05-20T09:13:01.235Z,59.22
2019-05-20T09:14:01.218Z,59.19
2019-05-20T09:15:01.209Z,60.39
2019-05-20T09:16:01.204Z,59.08
2019-05-20T09:17:01.197Z,55.92
2019-05-20T09:18:01.182Z,55.47
2019-05-20T09:19:01.192Z,54.02
2019-05-20T09:20:01.191Z,53.72
2019-05-20T09:21:01.147Z,53.77
2019-05-20T09:22:01.173Z,55.54
2019-05-20T09:23:02.755Z,54.17
2019-05-20T09:24:01.116Z,54.39
2019-05-20T09:25:01.166Z,56.79
2019-05-20T09:26:01.112Z,55.64
2019-05-20T09:27:01.143Z,53.77
2019-05-20T09:28:01.108Z,51.39
2019-05-20T09:29:01.075Z,52.47
2019-05-20T09:30:01.057Z,51.89
2019-05-20T09:31:01.050Z,53.05
2019-05-20T09:32:01.051Z,54.14
2019-05-20T09:33:01.038Z,55.07
2019-05-20T09:34:01.014Z,54.47
2019-05-20T09:35:01.000Z,55.85
2019-05-20T09:36:01.009Z,55.05
2019-05-20T09:37:00.986Z,54.27
2019-05-20T09:38:00.981Z,56.00
2019-05-20T09:39:00.964Z,56.48
2019-05-20T09:40:00.984Z,55.80
2019-05-20T09:41:00.940Z,56.70
2019-05-20T09:42:00.922Z,56.13
2019-05-20T09:43:00.922Z,55.93
2019-05-20T09:44:00.910Z,54.74
2019-05-20T09:45:03.055Z,53.99
2019-05-20T09:46:07.549Z,53.77
2019-05-20T09:47:01.870Z,51.92
2019-05-20T09:48:00.889Z,51.67
2019-05-20T09:49:00.860Z,52.67
2019-05-20T09:50:00.846Z,51.65
2019-05-20T09:51:00.833Z,50.04
2019-05-20T09:52:00.866Z,52.00
2019-05-20T09:53:00.818Z,54.82
2019-05-20T09:54:00.798Z,53.82
2019-05-20T09:55:00.797Z,54.77
2019-05-20T09:56:00.804Z,54.14
2019-05-20T09:57:00.776Z,54.55
2019-05-20T09:58:00.770Z,54.00
2019-05-20T09:59:00.745Z,55.35
2019-05-20T10:00:00.736Z,55.17
2019-05-20T10:01:00.741Z,54.37
2019-05-20T10:02:00.722Z,53.67
2019-05-20T10:03:00.787Z,55.15
2019-05-20T10:04:00.699Z,50.22
2019-05-20T10:05:00.698Z,51.22
2019-05-20T10:06:00.694Z,52.24
2019-05-20T10:07:00.676Z,52.72
2019-05-20T10:08:00.657Z,54.10
2019-05-20T10:09:00.649Z,50.49
2019-05-20T10:10:00.641Z,50.55
2019-05-20T10:11:01.454Z,48.76
2019-05-20T10:12:00.613Z,45.65
2019-05-20T10:13:00.650Z,47.47
2019-05-20T10:14:00.600Z,47.86
2019-05-20T10:15:00.595Z,48.61
2019-05-20T10:16:00.579Z,45.93
2019-05-20T10:17:00.565Z,46.01
2019-05-20T10:18:00.561Z,45.53
2019-05-20T10:19:00.542Z,46.12
2019-05-20T10:20:00.541Z,47.24
2019-05-20T10:21:00.522Z,48.08
2019-05-20T10:22:00.522Z,49.00
2019-05-20T10:23:00.508Z,49.92
2019-05-20T10:24:00.497Z,49.41
2019-05-20T10:25:00.484Z,51.92
2019-05-20T10:26:00.469Z,53.00
2019-05-20T10:27:00.460Z,54.33
2019-05-20T10:28:00.454Z,54.35
2019-05-20T10:29:00.448Z,55.55
2019-05-20T10:30:00.432Z,58.04
2019-05-20T10:31:00.419Z,56.10
2019-05-20T10:32:00.413Z,55.78
2019-05-20T10:33:00.396Z,56.56
2019-05-20T10:34:00.386Z,56.23
2019-05-20T10:35:00.375Z,54.15
2019-05-20T10:36:00.364Z,57.15
2019-05-20T10:37:00.363Z,56.15
2019-05-20T10:38:00.405Z,54.27
2019-05-20T10:39:00.347Z,57.34
2019-05-20T10:40:00.323Z,58.90
2019-05-20T10:41:00.321Z,61.17
2019-05-20T10:42:00.302Z,62.81
2019-05-20T10:43:00.295Z,64.05
2019-05-20T10:44:00.278Z,64.38
2019-05-20T10:45:00.270Z,66.22
2019-05-20T10:46:00.260Z,68.68
2019-05-20T10:47:00.254Z,71.13
2019-05-20T10:48:00.239Z,73.45
2019-05-20T10:49:00.228Z,74.46
2019-05-20T10:50:00.236Z,75.10
2019-05-20T10:51:00.204Z,76.11
2019-05-20T10:52:00.200Z,77.36
2019-05-20T10:53:00.187Z,78.10
2019-05-20T10:54:00.174Z,79.08
2019-05-20T10:55:00.161Z,77.50
2019-05-20T10:56:00.458Z,78.71
2019-05-20T10:57:00.158Z,80.66
2019-05-20T10:58:00.132Z,78.82
2019-05-20T10:59:00.127Z,80.47
2019-05-20T11:00:00.118Z,83.15
2019-05-20T11:01:03.502Z,82.17
2019-05-20T11:02:00.090Z,84.20
2019-05-20T11:03:00.085Z,85.88
2019-05-20T11:04:00.068Z,86.08
2019-05-20T11:05:00.051Z,85.21
2019-05-20T11:06:00.043Z,86.07
2019-05-20T11:07:00.043Z,85.46
2019-05-20T11:08:00.046Z,84.89
2019-05-20T11:09:13.015Z,85.09
2019-05-20T11:10:00.998Z,86.96
2019-05-20T11:10:59.990Z,86.86
2019-05-20T11:11:59.979Z,87.57
2019-05-20T11:12:59.967Z,89.50
2019-05-20T11:13:59.957Z,88.84
2019-05-20T11:14:59.946Z,89.31
2019-05-20T11:15:59.938Z,88.95
2019-05-20T11:16:59.927Z,89.81
2019-05-20T11:17:59.917Z,88.75
2019-05-20T11:18:59.917Z,89.09
2019-05-20T11:19:59.893Z,90.00
2019-05-20T11:20:59.882Z,89.15
2019-05-20T11:21:59.878Z,88.78
2019-05-20T11:23:01.207Z,88.01
2019-05-20T11:23:59.851Z,90.11
2019-05-20T11:24:59.847Z,88.01
2019-05-20T11:25:59.827Z,88.21
2019-05-20T11:26:59.819Z,89.39
2019-05-20T11:27:59.810Z,90.36
2019-05-20T11:28:59.793Z,89.55
2019-05-20T11:29:59.784Z,88.89
2019-05-20T11:30:59.781Z,89.15
2019-05-20T11:31:59.772Z,90.12
2019-05-20T11:32:59.749Z,88.90
2019-05-20T11:33:59.741Z,88.64
2019-05-20T11:34:59.732Z,89.15
2019-05-20T11:35:59.721Z,89.72
2019-05-20T11:36:59.706Z,89.51
2019-05-20T11:37:59.709Z,88.60
2019-05-20T11:38:59.695Z,88.80
2019-05-20T11:39:59.673Z,89.37
2019-05-20T11:40:59.664Z,88.76
2019-05-20T11:41:59.655Z,88.86
2019-05-20T11:42:59.652Z,88.78
2019-05-20T11:43:59.635Z,87.46
2019-05-20T11:44:59.621Z,88.33
2019-05-20T11:45:59.612Z,88.29
2019-05-20T11:46:59.601Z,86.93
2019-05-20T11:47:59.601Z,86.83
2019-05-20T11:48:59.580Z,81.65
2019-05-20T11:49:59.564Z,83.55
2019-05-20T11:50:59.554Z,84.67
2019-05-20T11:51:59.540Z,86.39
2019-05-20T11:52:59.571Z,86.98
2019-05-20T11:53:59.523Z,87.19
2019-05-20T11:54:59.517Z,86.85
2019-05-20T11:55:59.500Z,84.23
2019-05-20T11:56:59.484Z,81.80
2019-05-20T11:58:14.449Z,83.58
2019-05-20T11:59:00.467Z,81.96
2019-05-20T11:59:59.454Z,83.30
2019-05-20T12:00:59.445Z,83.42
2019-05-20T12:02:03.708Z,80.20
2019-05-20T12:02:59.431Z,80.20
2019-05-20T12:03:59.414Z,78.69
2019-05-20T12:04:59.404Z,81.39
2019-05-20T12:05:59.398Z,80.07
2019-05-20T12:06:59.381Z,74.61
2019-05-20T12:07:59.369Z,78.22
2019-05-20T12:08:59.365Z,74.54
2019-05-20T12:09:59.348Z,71.80
2019-05-20T12:10:59.340Z,74.24
2019-05-20T12:11:59.327Z,73.91
2019-05-20T12:12:59.313Z,69.76
2019-05-20T12:13:59.308Z,74.58
2019-05-20T12:14:59.294Z,71.00
2019-05-20T12:15:59.283Z,73.68
2019-05-20T12:16:59.271Z,70.43
2019-05-20T12:17:59.265Z,69.25
2019-05-20T12:18:59.251Z,68.38
2019-05-20T12:19:59.248Z,67.65
2019-05-20T12:20:59.228Z,71.33
2019-05-20T12:21:59.225Z,70.83
2019-05-20T12:22:59.218Z,68.32
2019-05-20T12:23:59.220Z,64.98
2019-05-20T12:24:59.194Z,65.92
2019-05-20T12:25:59.187Z,64.92
2019-05-20T12:26:59.170Z,71.33
2019-05-20T12:27:59.159Z,68.09
2019-05-20T12:28:59.154Z,67.16
2019-05-20T12:29:59.158Z,60.32
2019-05-20T12:30:59.127Z,60.52
2019-05-20T12:32:03.298Z,64.25
2019-05-20T12:33:17.706Z,66.82
2019-05-20T12:34:00.094Z,66.16
2019-05-20T12:34:59.090Z,65.99
2019-05-20T12:35:59.104Z,63.70
2019-05-20T12:36:59.068Z,63.81
2019-05-20T12:37:59.130Z,61.21
2019-05-20T12:38:59.046Z,62.66
2019-05-20T12:40:06.883Z,58.94
2019-05-20T12:41:00.058Z,62.46
2019-05-20T12:41:59.012Z,63.87
2019-05-20T12:42:59.001Z,60.25
2019-05-20T12:44:10.853Z,65.97
2019-05-20T12:44:59.984Z,60.76
2019-05-20T12:45:58.979Z,60.77
2019-05-20T12:46:58.964Z,58.90
2019-05-20T12:47:58.953Z,55.83
2019-05-20T12:48:59.071Z,55.91
2019-05-20T12:49:58.931Z,55.16
2019-05-20T12:50:58.940Z,53.33
2019-05-20T12:51:58.912Z,49.46